FIN6PR EKCH-EFHK
Flight info
| Callsign | FIN6PR |
|---|---|
| Flight time | 1h 20m |
| Altitude | 35000 |
| Route | KEMAX T408 OTVEB DCT ALAMI DCT OKEVU DCT EVADI Y370 DIVAM |
| Aircraft | A321/M-SDE3FGHIRWY/LB1 |
Departure
| Time | 2026-04-22 16:52 |
|---|---|
| Airport | Copenhagen Kastrup Airport (EKCH) |
Arrival
| Time | 2026-04-22 18:13 |
|---|---|
| Airport | Helsinki Vantaa Airport (EFHK) |
| Time | Latitude | Longitude | Altitude | Speed | Heading |
|---|---|---|---|---|---|
| 2026-04-22 16:30 | 55.62783 | 12.64154 | 17 ft | 0 kts | 123° |
| 2026-04-22 16:40 | 55.62789 | 12.64138 | 17 ft | 2 kts | 121° |
| 2026-04-22 16:41 | 55.62797 | 12.64113 | 17 ft | 2 kts | 120° |
| 2026-04-22 16:41 | 55.62806 | 12.64087 | 21 ft | 2 kts | 116° |
| 2026-04-22 16:41 | 55.62813 | 12.64061 | 19 ft | 2 kts | 110° |
| 2026-04-22 16:41 | 55.62817 | 12.64033 | 18 ft | 2 kts | 92° |
| 2026-04-22 16:42 | 55.62819 | 12.64004 | 21 ft | 2 kts | 96° |
| 2026-04-22 16:42 | 55.62822 | 12.63975 | 18 ft | 2 kts | 102° |
| 2026-04-22 16:42 | 55.62825 | 12.63950 | 18 ft | 1 kts | 107° |
| 2026-04-22 16:42 | 55.62826 | 12.63947 | 18 ft | 0 kts | 104° |
| 2026-04-22 16:44 | 55.62825 | 12.63952 | 18 ft | 2 kts | 107° |
| 2026-04-22 16:44 | 55.62802 | 12.63983 | 19 ft | 5 kts | 167° |
| 2026-04-22 16:44 | 55.62759 | 12.63948 | 17 ft | 9 kts | 210° |
| 2026-04-22 16:45 | 55.62700 | 12.63882 | 17 ft | 11 kts | 214° |
| 2026-04-22 16:45 | 55.62633 | 12.63909 | 17 ft | 14 kts | 126° |
| 2026-04-22 16:45 | 55.62575 | 12.64067 | 17 ft | 16 kts | 123° |
| 2026-04-22 16:45 | 55.62511 | 12.64237 | 17 ft | 17 kts | 124° |
| 2026-04-22 16:46 | 55.62443 | 12.64403 | 17 ft | 14 kts | 129° |
| 2026-04-22 16:46 | 55.62402 | 12.64462 | 17 ft | 11 kts | 168° |
| 2026-04-22 16:46 | 55.62326 | 12.64429 | 17 ft | 12 kts | 198° |
| 2026-04-22 16:46 | 55.62215 | 12.64403 | 15 ft | 19 kts | 173° |
| 2026-04-22 16:47 | 55.62084 | 12.64449 | 17 ft | 20 kts | 169° |
| 2026-04-22 16:47 | 55.61945 | 12.64489 | 17 ft | 21 kts | 171° |
| 2026-04-22 16:47 | 55.61803 | 12.64543 | 17 ft | 21 kts | 167° |
| 2026-04-22 16:47 | 55.61658 | 12.64542 | 17 ft | 22 kts | 205° |
| 2026-04-22 16:48 | 55.61527 | 12.64401 | 18 ft | 22 kts | 213° |
| 2026-04-22 16:48 | 55.61396 | 12.64246 | 17 ft | 23 kts | 213° |
| 2026-04-22 16:48 | 55.61260 | 12.64086 | 18 ft | 24 kts | 214° |
| 2026-04-22 16:48 | 55.61119 | 12.63928 | 17 ft | 24 kts | 212° |
| 2026-04-22 16:49 | 55.60976 | 12.63764 | 17 ft | 25 kts | 213° |
| 2026-04-22 16:49 | 55.60830 | 12.63595 | 17 ft | 25 kts | 212° |
| 2026-04-22 16:49 | 55.60683 | 12.63425 | 19 ft | 25 kts | 214° |
| 2026-04-22 16:49 | 55.60554 | 12.63244 | 18 ft | 18 kts | 219° |
| 2026-04-22 16:50 | 55.60454 | 12.63284 | 17 ft | 17 kts | 132° |
| 2026-04-22 16:50 | 55.60402 | 12.63424 | 18 ft | 12 kts | 79° |
| 2026-04-22 16:50 | 55.60432 | 12.63496 | 17 ft | 0 kts | 39° |
| 2026-04-22 16:51 | 55.60435 | 12.63500 | 17 ft | 2 kts | 39° |
| 2026-04-22 16:51 | 55.60539 | 12.63655 | 17 ft | 54 kts | 39° |
| 2026-04-22 16:52 | 55.61018 | 12.64380 | 16 ft | 125 kts | 40° |
| 2026-04-22 16:52 | 55.61814 | 12.65592 | 70 ft | 170 kts | 43° |
| 2026-04-22 16:52 | 55.62661 | 12.66956 | 823 ft | 159 kts | 37° |
| 2026-04-22 16:52 | 55.63483 | 12.68243 | 1545 ft | 159 kts | 38° |
| 2026-04-22 16:53 | 55.64364 | 12.69601 | 1867 ft | 178 kts | 37° |
| 2026-04-22 16:53 | 55.65363 | 12.71126 | 2076 ft | 201 kts | 37° |
| 2026-04-22 16:53 | 55.66498 | 12.72810 | 2279 ft | 225 kts | 37° |
| 2026-04-22 16:53 | 55.67761 | 12.74675 | 2621 ft | 247 kts | 38° |
| 2026-04-22 16:54 | 55.69099 | 12.76664 | 3364 ft | 253 kts | 38° |
| 2026-04-22 16:54 | 55.70449 | 12.78686 | 4262 ft | 254 kts | 39° |
| 2026-04-22 16:54 | 55.71799 | 12.80714 | 5178 ft | 255 kts | 39° |
| 2026-04-22 16:54 | 55.73157 | 12.82756 | 6052 ft | 256 kts | 40° |
| 2026-04-22 16:55 | 55.74523 | 12.84809 | 6902 ft | 258 kts | 40° |
| 2026-04-22 16:55 | 55.75886 | 12.86912 | 7696 ft | 261 kts | 41° |
| 2026-04-22 16:55 | 55.77256 | 12.89067 | 8479 ft | 264 kts | 41° |
| 2026-04-22 16:55 | 55.78636 | 12.91252 | 9257 ft | 268 kts | 42° |
| 2026-04-22 16:56 | 55.80034 | 12.93468 | 10047 ft | 271 kts | 42° |
| 2026-04-22 16:56 | 55.81466 | 12.95733 | 10565 ft | 284 kts | 42° |
| 2026-04-22 16:56 | 55.83003 | 12.98161 | 10763 ft | 307 kts | 42° |
| 2026-04-22 16:56 | 55.84664 | 13.00781 | 10919 ft | 330 kts | 42° |
| 2026-04-22 16:57 | 55.86411 | 13.03537 | 11390 ft | 339 kts | 42° |
| 2026-04-22 16:57 | 55.88187 | 13.06340 | 12074 ft | 343 kts | 42° |
| 2026-04-22 16:57 | 55.89982 | 13.09178 | 12791 ft | 346 kts | 42° |
| 2026-04-22 16:57 | 55.91789 | 13.12040 | 13518 ft | 349 kts | 42° |
| 2026-04-22 16:58 | 55.92997 | 13.13956 | 13992 ft | 351 kts | 42° |
| 2026-04-22 16:58 | 55.95457 | 13.17864 | 14851 ft | 355 kts | 43° |
| 2026-04-22 16:58 | 55.97309 | 13.20816 | 15516 ft | 358 kts | 43° |
| 2026-04-22 16:58 | 55.99170 | 13.23785 | 16173 ft | 361 kts | 43° |
| 2026-04-22 16:59 | 56.01046 | 13.26782 | 16852 ft | 363 kts | 43° |
| 2026-04-22 16:59 | 56.02940 | 13.29807 | 17529 ft | 366 kts | 43° |
| 2026-04-22 16:59 | 56.04844 | 13.32848 | 18206 ft | 368 kts | 43° |
| 2026-04-22 16:59 | 56.06761 | 13.35915 | 18805 ft | 371 kts | 43° |
| 2026-04-22 17:00 | 56.08687 | 13.39009 | 19412 ft | 373 kts | 43° |
| 2026-04-22 17:00 | 56.12531 | 13.45291 | 20598 ft | 376 kts | 47° |
| 2026-04-22 17:00 | 56.14223 | 13.48868 | 21170 ft | 377 kts | 51° |
| 2026-04-22 17:01 | 56.15879 | 13.52530 | 21738 ft | 378 kts | 51° |
| 2026-04-22 17:01 | 56.17545 | 13.56202 | 22297 ft | 380 kts | 51° |
| 2026-04-22 17:01 | 56.19220 | 13.59890 | 22845 ft | 382 kts | 51° |
| 2026-04-22 17:01 | 56.20880 | 13.63552 | 23369 ft | 384 kts | 51° |
| 2026-04-22 17:02 | 56.22569 | 13.67278 | 23869 ft | 386 kts | 51° |
| 2026-04-22 17:02 | 56.24287 | 13.71075 | 24307 ft | 388 kts | 51° |
| 2026-04-22 17:02 | 56.25992 | 13.74853 | 24727 ft | 390 kts | 51° |
| 2026-04-22 17:02 | 56.27703 | 13.78656 | 25146 ft | 392 kts | 51° |
| 2026-04-22 17:03 | 56.29419 | 13.82480 | 25563 ft | 394 kts | 51° |
| 2026-04-22 17:03 | 56.31143 | 13.86331 | 25989 ft | 396 kts | 51° |
| 2026-04-22 17:03 | 56.32871 | 13.90201 | 26397 ft | 398 kts | 51° |
| 2026-04-22 17:03 | 56.34610 | 13.94097 | 26806 ft | 400 kts | 51° |
| 2026-04-22 17:04 | 56.36355 | 13.98015 | 27198 ft | 402 kts | 51° |
| 2026-04-22 17:04 | 56.38109 | 14.01953 | 27588 ft | 404 kts | 51° |
| 2026-04-22 17:04 | 56.39872 | 14.05910 | 27982 ft | 406 kts | 51° |
| 2026-04-22 17:04 | 56.41642 | 14.09888 | 28375 ft | 408 kts | 51° |
| 2026-04-22 17:05 | 56.43420 | 14.13892 | 28761 ft | 410 kts | 51° |
| 2026-04-22 17:05 | 56.45208 | 14.17935 | 29134 ft | 412 kts | 51° |
| 2026-04-22 17:05 | 56.46989 | 14.21982 | 29644 ft | 411 kts | 51° |
| 2026-04-22 17:05 | 56.48743 | 14.25971 | 30182 ft | 409 kts | 51° |
| 2026-04-22 17:06 | 56.50512 | 14.29990 | 30626 ft | 408 kts | 51° |
| 2026-04-22 17:06 | 56.52280 | 14.34007 | 31027 ft | 407 kts | 51° |
| 2026-04-22 17:06 | 56.54046 | 14.38024 | 31407 ft | 407 kts | 51° |
| 2026-04-22 17:06 | 56.55807 | 14.42037 | 31789 ft | 407 kts | 51° |
| 2026-04-22 17:07 | 56.57573 | 14.46070 | 32187 ft | 407 kts | 51° |
| 2026-04-22 17:07 | 56.59333 | 14.50103 | 32567 ft | 407 kts | 51° |
| 2026-04-22 17:07 | 56.61088 | 14.54134 | 32953 ft | 407 kts | 51° |
| 2026-04-22 17:07 | 56.62841 | 14.58172 | 33341 ft | 407 kts | 51° |
| 2026-04-22 17:08 | 56.64589 | 14.62200 | 33734 ft | 406 kts | 51° |
| 2026-04-22 17:08 | 56.66339 | 14.66235 | 34102 ft | 406 kts | 51° |
| 2026-04-22 17:08 | 56.68087 | 14.70275 | 34404 ft | 406 kts | 51° |
| 2026-04-22 17:08 | 56.69836 | 14.74322 | 34677 ft | 407 kts | 51° |
| 2026-04-22 17:09 | 56.71587 | 14.78383 | 34947 ft | 408 kts | 51° |
| 2026-04-22 17:09 | 56.73338 | 14.82450 | 35100 ft | 410 kts | 51° |
| 2026-04-22 17:09 | 56.76853 | 14.90631 | 35138 ft | 409 kts | 51° |
| 2026-04-22 17:10 | 56.80359 | 14.98806 | 35138 ft | 409 kts | 51° |
| 2026-04-22 17:10 | 56.83853 | 15.07007 | 35138 ft | 409 kts | 51° |
| 2026-04-22 17:11 | 56.87338 | 15.15218 | 35135 ft | 409 kts | 51° |
| 2026-04-22 17:11 | 56.90820 | 15.23439 | 35137 ft | 409 kts | 51° |
| 2026-04-22 17:12 | 56.94310 | 15.31689 | 35135 ft | 410 kts | 51° |
| 2026-04-22 17:12 | 56.97794 | 15.39947 | 35141 ft | 410 kts | 51° |
| 2026-04-22 17:13 | 57.01274 | 15.48244 | 35137 ft | 410 kts | 51° |
| 2026-04-22 17:13 | 57.04749 | 15.56559 | 35140 ft | 410 kts | 51° |
| 2026-04-22 17:14 | 57.08222 | 15.64887 | 35143 ft | 410 kts | 51° |
| 2026-04-22 17:14 | 57.11684 | 15.73247 | 35142 ft | 411 kts | 51° |
| 2026-04-22 17:15 | 57.15137 | 15.81611 | 35141 ft | 410 kts | 51° |
| 2026-04-22 17:15 | 57.18588 | 15.89991 | 35143 ft | 410 kts | 51° |
| 2026-04-22 17:16 | 57.22033 | 15.98387 | 35132 ft | 410 kts | 51° |
| 2026-04-22 17:16 | 57.25474 | 16.06785 | 35137 ft | 410 kts | 51° |
| 2026-04-22 17:17 | 57.28910 | 16.15195 | 35129 ft | 410 kts | 51° |
| 2026-04-22 17:17 | 57.32337 | 16.23621 | 35131 ft | 410 kts | 51° |
| 2026-04-22 17:18 | 57.35752 | 16.32070 | 35123 ft | 410 kts | 51° |
| 2026-04-22 17:18 | 57.39163 | 16.40533 | 35125 ft | 410 kts | 51° |
| 2026-04-22 17:19 | 57.45980 | 16.57488 | 35120 ft | 409 kts | 51° |
| 2026-04-22 17:20 | 57.52749 | 16.74476 | 35114 ft | 409 kts | 51° |
| 2026-04-22 17:21 | 57.57826 | 16.87288 | 35107 ft | 409 kts | 52° |
| 2026-04-22 17:22 | 57.62880 | 17.00100 | 35106 ft | 409 kts | 51° |
| 2026-04-22 17:23 | 57.67923 | 17.12947 | 35094 ft | 409 kts | 52° |
| 2026-04-22 17:23 | 57.72948 | 17.25846 | 35095 ft | 409 kts | 52° |
| 2026-04-22 17:24 | 57.76292 | 17.34470 | 35087 ft | 409 kts | 52° |
| 2026-04-22 17:24 | 57.79637 | 17.43120 | 35085 ft | 409 kts | 51° |
| 2026-04-22 17:25 | 57.82959 | 17.51723 | 35081 ft | 408 kts | 51° |
| 2026-04-22 17:25 | 57.85729 | 17.58929 | 35083 ft | 408 kts | 51° |
| 2026-04-22 17:26 | 57.89586 | 17.69017 | 35075 ft | 408 kts | 51° |
| 2026-04-22 17:26 | 57.92882 | 17.77670 | 35080 ft | 408 kts | 52° |
| 2026-04-22 17:27 | 57.95631 | 17.84929 | 35068 ft | 408 kts | 51° |
| 2026-04-22 17:27 | 57.98936 | 17.93643 | 35065 ft | 408 kts | 51° |
| 2026-04-22 17:28 | 58.02226 | 18.02345 | 35072 ft | 408 kts | 51° |
| 2026-04-22 17:28 | 58.05501 | 18.11053 | 35067 ft | 407 kts | 51° |
| 2026-04-22 17:29 | 58.08759 | 18.19758 | 35062 ft | 407 kts | 52° |
| 2026-04-22 17:29 | 58.12016 | 18.28496 | 35070 ft | 407 kts | 51° |
| 2026-04-22 17:30 | 58.15275 | 18.37254 | 35059 ft | 407 kts | 51° |
| 2026-04-22 17:30 | 58.18527 | 18.46020 | 35056 ft | 407 kts | 51° |
| 2026-04-22 17:31 | 58.21758 | 18.54788 | 35059 ft | 406 kts | 51° |
| 2026-04-22 17:31 | 58.25003 | 18.63627 | 35056 ft | 406 kts | 51° |
| 2026-04-22 17:32 | 58.28220 | 18.72414 | 35049 ft | 406 kts | 51° |
| 2026-04-22 17:32 | 58.31442 | 18.81233 | 35047 ft | 405 kts | 51° |
| 2026-04-22 17:33 | 58.34643 | 18.90018 | 35031 ft | 405 kts | 51° |
| 2026-04-22 17:33 | 58.36250 | 18.94442 | 34805 ft | 405 kts | 50° |
| 2026-04-22 17:33 | 58.37832 | 18.98821 | 34938 ft | 398 kts | 50° |
| 2026-04-22 17:34 | 58.40955 | 19.07491 | 35020 ft | 395 kts | 50° |
| 2026-04-22 17:34 | 58.44061 | 19.16135 | 35021 ft | 395 kts | 50° |
| 2026-04-22 17:35 | 58.47165 | 19.24781 | 35022 ft | 394 kts | 50° |
| 2026-04-22 17:35 | 58.50266 | 19.33440 | 35016 ft | 395 kts | 50° |
| 2026-04-22 17:36 | 58.53339 | 19.42078 | 35017 ft | 395 kts | 50° |
| 2026-04-22 17:36 | 58.56426 | 19.50805 | 35030 ft | 396 kts | 50° |
| 2026-04-22 17:37 | 58.59513 | 19.59543 | 35029 ft | 396 kts | 50° |
| 2026-04-22 17:37 | 58.62593 | 19.68283 | 35027 ft | 396 kts | 50° |
| 2026-04-22 17:38 | 58.65664 | 19.77041 | 35035 ft | 395 kts | 50° |
| 2026-04-22 17:38 | 58.68733 | 19.85832 | 35029 ft | 395 kts | 50° |
| 2026-04-22 17:39 | 58.71786 | 19.94619 | 35025 ft | 395 kts | 49° |
| 2026-04-22 17:40 | 58.76355 | 20.07830 | 35016 ft | 395 kts | 49° |
| 2026-04-22 17:40 | 58.79400 | 20.16636 | 35010 ft | 395 kts | 49° |
| 2026-04-22 17:41 | 58.82438 | 20.25478 | 35002 ft | 396 kts | 49° |
| 2026-04-22 17:41 | 58.85472 | 20.34347 | 34997 ft | 396 kts | 49° |
| 2026-04-22 17:42 | 58.88508 | 20.43244 | 34990 ft | 397 kts | 49° |
| 2026-04-22 17:42 | 58.91540 | 20.52179 | 34989 ft | 398 kts | 49° |
| 2026-04-22 17:43 | 58.94570 | 20.61154 | 34986 ft | 398 kts | 49° |
| 2026-04-22 17:43 | 58.97605 | 20.70143 | 34980 ft | 399 kts | 49° |
| 2026-04-22 17:44 | 59.00636 | 20.79167 | 34975 ft | 400 kts | 50° |
| 2026-04-22 17:44 | 59.03642 | 20.88176 | 34969 ft | 400 kts | 50° |
| 2026-04-22 17:45 | 59.06645 | 20.97314 | 34963 ft | 402 kts | 50° |
| 2026-04-22 17:45 | 59.09565 | 21.06613 | 34964 ft | 403 kts | 51° |
| 2026-04-22 17:46 | 59.12471 | 21.15954 | 34959 ft | 404 kts | 51° |
| 2026-04-22 17:46 | 59.15384 | 21.25312 | 34958 ft | 404 kts | 51° |
| 2026-04-22 17:47 | 59.18304 | 21.34688 | 34957 ft | 405 kts | 51° |
| 2026-04-22 17:47 | 59.21221 | 21.44094 | 34951 ft | 405 kts | 51° |
| 2026-04-22 17:48 | 59.23658 | 21.51989 | 34952 ft | 405 kts | 51° |
| 2026-04-22 17:48 | 59.27037 | 21.62951 | 34948 ft | 405 kts | 51° |
| 2026-04-22 17:49 | 59.29940 | 21.72437 | 34941 ft | 406 kts | 51° |
| 2026-04-22 17:49 | 59.32824 | 21.81942 | 34937 ft | 406 kts | 51° |
| 2026-04-22 17:50 | 59.35715 | 21.91458 | 34933 ft | 406 kts | 51° |
| 2026-04-22 17:50 | 59.38605 | 22.00973 | 34929 ft | 406 kts | 51° |
| 2026-04-22 17:51 | 59.41487 | 22.10517 | 34926 ft | 407 kts | 51° |
| 2026-04-22 17:51 | 59.44363 | 22.20110 | 34914 ft | 407 kts | 51° |
| 2026-04-22 17:52 | 59.47234 | 22.29715 | 34912 ft | 408 kts | 51° |
| 2026-04-22 17:52 | 59.50101 | 22.39347 | 34909 ft | 408 kts | 51° |
| 2026-04-22 17:53 | 59.52970 | 22.49007 | 34906 ft | 408 kts | 51° |
| 2026-04-22 17:53 | 59.55812 | 22.58630 | 34900 ft | 409 kts | 51° |
| 2026-04-22 17:54 | 59.58677 | 22.68402 | 34898 ft | 409 kts | 51° |
| 2026-04-22 17:54 | 59.61505 | 22.78084 | 34895 ft | 409 kts | 51° |
| 2026-04-22 17:55 | 59.63889 | 22.86244 | 34892 ft | 409 kts | 51° |
| 2026-04-22 17:55 | 59.67178 | 22.97603 | 34881 ft | 409 kts | 51° |
| 2026-04-22 17:56 | 59.70006 | 23.07394 | 34076 ft | 411 kts | 51° |
| 2026-04-22 17:56 | 59.71432 | 23.12321 | 32351 ft | 416 kts | 51° |
| 2026-04-22 17:56 | 59.72881 | 23.17327 | 30542 ft | 422 kts | 52° |
| 2026-04-22 17:56 | 59.74346 | 23.22401 | 28539 ft | 426 kts | 52° |
| 2026-04-22 17:57 | 59.75814 | 23.27515 | 26727 ft | 426 kts | 52° |
| 2026-04-22 17:57 | 59.77266 | 23.32620 | 25124 ft | 422 kts | 52° |
| 2026-04-22 17:57 | 59.78694 | 23.37673 | 23647 ft | 416 kts | 52° |
| 2026-04-22 17:57 | 59.80100 | 23.42663 | 22051 ft | 410 kts | 52° |
| 2026-04-22 17:58 | 59.81472 | 23.47540 | 20568 ft | 400 kts | 52° |
| 2026-04-22 17:58 | 59.82812 | 23.52301 | 19489 ft | 385 kts | 51° |
| 2026-04-22 17:58 | 59.84062 | 23.56773 | 19153 ft | 355 kts | 51° |
| 2026-04-22 17:58 | 59.85209 | 23.60896 | 18787 ft | 329 kts | 50° |
| 2026-04-22 17:59 | 59.86300 | 23.64790 | 18052 ft | 318 kts | 49° |
| 2026-04-22 17:59 | 59.87373 | 23.68585 | 17103 ft | 311 kts | 49° |
| 2026-04-22 17:59 | 59.88428 | 23.72309 | 16137 ft | 306 kts | 50° |
| 2026-04-22 17:59 | 59.89469 | 23.75980 | 15210 ft | 302 kts | 50° |
| 2026-04-22 18:00 | 59.90150 | 23.78388 | 14607 ft | 300 kts | 50° |
| 2026-04-22 18:00 | 59.91416 | 23.83295 | 13802 ft | 302 kts | 59° |
| 2026-04-22 18:00 | 59.92097 | 23.87362 | 13460 ft | 311 kts | 62° |
| 2026-04-22 18:00 | 59.92756 | 23.91451 | 12987 ft | 309 kts | 62° |
| 2026-04-22 18:01 | 59.93404 | 23.95530 | 12518 ft | 308 kts | 62° |
| 2026-04-22 18:01 | 59.94046 | 23.99584 | 12048 ft | 306 kts | 62° |
| 2026-04-22 18:01 | 59.94684 | 24.03629 | 11589 ft | 305 kts | 62° |
| 2026-04-22 18:01 | 59.95317 | 24.07652 | 11124 ft | 304 kts | 62° |
| 2026-04-22 18:02 | 59.95947 | 24.11677 | 10661 ft | 303 kts | 63° |
| 2026-04-22 18:02 | 59.96554 | 24.15600 | 10472 ft | 286 kts | 63° |
| 2026-04-22 18:02 | 59.97251 | 24.19132 | 9936 ft | 264 kts | 52° |
| 2026-04-22 18:02 | 59.98116 | 24.22311 | 9174 ft | 258 kts | 51° |
| 2026-04-22 18:03 | 59.99007 | 24.25401 | 8420 ft | 254 kts | 51° |
| 2026-04-22 18:03 | 59.99907 | 24.28418 | 7668 ft | 251 kts | 50° |
| 2026-04-22 18:03 | 60.00931 | 24.31144 | 6937 ft | 240 kts | 37° |
| 2026-04-22 18:03 | 60.02165 | 24.33389 | 6462 ft | 238 kts | 37° |
| 2026-04-22 18:04 | 60.03402 | 24.35631 | 6333 ft | 241 kts | 37° |
| 2026-04-22 18:04 | 60.04633 | 24.37862 | 6154 ft | 242 kts | 37° |
| 2026-04-22 18:04 | 60.05859 | 24.40095 | 5939 ft | 229 kts | 37° |
| 2026-04-22 18:04 | 60.07008 | 24.42196 | 5693 ft | 220 kts | 37° |
| 2026-04-22 18:05 | 60.08134 | 24.44246 | 5429 ft | 217 kts | 36° |
| 2026-04-22 18:05 | 60.09249 | 24.46274 | 5113 ft | 216 kts | 36° |
| 2026-04-22 18:05 | 60.10367 | 24.48305 | 4749 ft | 217 kts | 36° |
| 2026-04-22 18:05 | 60.11482 | 24.50333 | 4395 ft | 216 kts | 36° |
| 2026-04-22 18:06 | 60.12592 | 24.52353 | 4044 ft | 215 kts | 35° |
| 2026-04-22 18:06 | 60.13697 | 24.54364 | 3803 ft | 213 kts | 35° |
| 2026-04-22 18:06 | 60.14786 | 24.56351 | 3754 ft | 206 kts | 35° |
| 2026-04-22 18:06 | 60.15799 | 24.58222 | 3675 ft | 191 kts | 34° |
| 2026-04-22 18:07 | 60.16441 | 24.59410 | 3614 ft | 181 kts | 34° |
| 2026-04-22 18:07 | 60.17606 | 24.61560 | 3537 ft | 166 kts | 33° |
| 2026-04-22 18:07 | 60.18454 | 24.63109 | 3448 ft | 164 kts | 33° |
| 2026-04-22 18:07 | 60.19294 | 24.64639 | 3369 ft | 163 kts | 33° |
| 2026-04-22 18:08 | 60.20135 | 24.66169 | 3299 ft | 164 kts | 33° |
| 2026-04-22 18:08 | 60.20963 | 24.67766 | 3194 ft | 167 kts | 38° |
| 2026-04-22 18:08 | 60.21488 | 24.68927 | 3048 ft | 166 kts | 38° |
| 2026-04-22 18:08 | 60.22257 | 24.70621 | 2841 ft | 166 kts | 37° |
| 2026-04-22 18:09 | 60.23055 | 24.72365 | 2599 ft | 168 kts | 37° |
| 2026-04-22 18:09 | 60.23845 | 24.74091 | 2378 ft | 168 kts | 37° |
| 2026-04-22 18:09 | 60.24630 | 24.75807 | 2136 ft | 162 kts | 38° |
| 2026-04-22 18:09 | 60.25345 | 24.77380 | 1938 ft | 142 kts | 36° |
| 2026-04-22 18:10 | 60.25978 | 24.78790 | 1765 ft | 135 kts | 36° |
| 2026-04-22 18:10 | 60.26621 | 24.80190 | 1577 ft | 133 kts | 36° |
| 2026-04-22 18:10 | 60.27263 | 24.81526 | 1383 ft | 133 kts | 36° |
| 2026-04-22 18:10 | 60.27880 | 24.82934 | 1206 ft | 134 kts | 41° |
| 2026-04-22 18:11 | 60.28514 | 24.84333 | 1020 ft | 137 kts | 37° |
| 2026-04-22 18:11 | 60.29187 | 24.85720 | 828 ft | 142 kts | 41° |
| 2026-04-22 18:11 | 60.29846 | 24.87199 | 587 ft | 144 kts | 42° |
| 2026-04-22 18:11 | 60.30528 | 24.88689 | 436 ft | 145 kts | 42° |
| 2026-04-22 18:12 | 60.31217 | 24.90218 | 219 ft | 145 kts | 40° |
| 2026-04-22 18:12 | 60.31878 | 24.91649 | 150 ft | 125 kts | 43° |
| 2026-04-22 18:12 | 60.32354 | 24.92678 | 170 ft | 81 kts | 47° |
| 2026-04-22 18:12 | 60.32672 | 24.93393 | 180 ft | 57 kts | 49° |
| 2026-04-22 18:13 | 60.32910 | 24.93924 | 184 ft | 48 kts | 49° |
| 2026-04-22 18:13 | 60.33051 | 24.94401 | 193 ft | 28 kts | 106° |
| 2026-04-22 18:13 | 60.33006 | 24.94706 | 180 ft | 21 kts | 128° |
| 2026-04-22 18:13 | 60.32906 | 24.94878 | 175 ft | 20 kts | 145° |
| 2026-04-22 18:14 | 60.32773 | 24.94992 | 177 ft | 20 kts | 164° |
| 2026-04-22 18:14 | 60.32640 | 24.95078 | 180 ft | 20 kts | 159° |
| 2026-04-22 18:14 | 60.32504 | 24.95174 | 180 ft | 22 kts | 161° |
| 2026-04-22 18:14 | 60.32352 | 24.95278 | 177 ft | 24 kts | 158° |
| 2026-04-22 18:15 | 60.32216 | 24.95498 | 174 ft | 22 kts | 136° |
| 2026-04-22 18:15 | 60.32099 | 24.95716 | 173 ft | 22 kts | 137° |
| 2026-04-22 18:15 | 60.32009 | 24.95884 | 173 ft | 16 kts | 137° |
| 2026-04-22 18:15 | 60.31976 | 24.96045 | 170 ft | 15 kts | 68° |
| 2026-04-22 18:16 | 60.32049 | 24.96221 | 168 ft | 17 kts | 47° |
| 2026-04-22 18:16 | 60.32117 | 24.96372 | 168 ft | 11 kts | 48° |
| 2026-04-22 18:16 | 60.32174 | 24.96498 | 168 ft | 13 kts | 47° |
| 2026-04-22 18:16 | 60.32215 | 24.96588 | 168 ft | 8 kts | 47° |
| 2026-04-22 18:17 | 60.32247 | 24.96706 | 167 ft | 12 kts | 91° |
| 2026-04-22 18:17 | 60.32196 | 24.96795 | 166 ft | 9 kts | 150° |
| 2026-04-22 18:17 | 60.32149 | 24.96848 | 166 ft | 4 kts | 151° |
| 2026-04-22 18:17 | 60.32136 | 24.96862 | 166 ft | 0 kts | 150° |
| 2026-04-22 18:18 | 60.32131 | 24.96867 | 166 ft | 1 kts | 155° |
| 2026-04-22 18:20 | 60.32129 | 24.96868 | 166 ft | 1 kts | 160° |
| 2026-04-22 18:20 | 60.32106 | 24.96855 | 167 ft | 5 kts | 208° |
| 2026-04-22 18:20 | 60.32076 | 24.96807 | 167 ft | 6 kts | 224° |
| 2026-04-22 18:21 | 60.32041 | 24.96734 | 167 ft | 8 kts | 227° |
| 2026-04-22 18:21 | 60.32000 | 24.96642 | 167 ft | 8 kts | 227° |
| 2026-04-22 18:21 | 60.31957 | 24.96658 | 167 ft | 6 kts | 141° |
| 2026-04-22 18:21 | 60.31945 | 24.96680 | 167 ft | 0 kts | 138° |